Time,TemperatureF,DewpointF,PressureIn,WindDirection,WindDirectionDegrees,WindSpeedMPH,WindSpeedGustMPH,Humidity,HourlyPrecipIn,Conditions,Clouds,dailyrainin,SolarRadiationWatts/m^2,SoftwareType,DateUTC
2013-05-25 00:00:00,46.0,38.0,-100.00,WNW,292,4.0,-999.0,73,-99.99,,,-99.99,0.000000,,2013-05-25 04:00:00,
2013-05-25 00:33:00,46.0,38.0,-100.00,WNW,292,4.0,-999.0,73,-99.99,,,-99.99,0.000000,,2013-05-25 04:33:00,
2013-05-25 00:43:00,46.0,38.0,-100.00,WNW,292,4.0,-999.0,73,-99.99,,,-99.99,0.000000,,2013-05-25 04:43:00,
2013-05-25 00:53:00,46.0,38.0,-100.00,WNW,292,4.0,-999.0,73,-99.99,,,-99.99,0.000000,,2013-05-25 04:53:00,
2013-05-25 01:00:00,44.0,38.0,-100.00,WNW,292,1.0,-999.0,78,-99.99,,,-99.99,0.000000,,2013-05-25 05:00:00,
2013-05-25 01:32:00,44.0,38.0,-100.00,WNW,292,1.0,-999.0,78,-99.99,,,-99.99,0.000000,,2013-05-25 05:32:00,
2013-05-25 01:43:00,44.0,38.0,-100.00,WNW,292,1.0,-999.0,78,-99.99,,,-99.99,0.000000,,2013-05-25 05:43:00,
2013-05-25 01:52:00,44.0,38.0,-100.00,WNW,292,1.0,-999.0,78,-99.99,,,-99.99,0.000000,,2013-05-25 05:52:00,
2013-05-25 03:00:00,40.0,37.0,-100.00,WSW,247,0.0,-999.0,91,-99.99,,,-99.99,0.000000,,2013-05-25 07:00:00,
2013-05-25 03:32:00,40.0,37.0,-100.00,WSW,247,0.0,-999.0,91,-99.99,,,-99.99,0.000000,,2013-05-25 07:32:00,
2013-05-25 03:42:00,40.0,37.0,-100.00,WSW,247,0.0,-999.0,91,-99.99,,,-99.99,0.000000,,2013-05-25 07:42:00,
2013-05-25 03:52:00,40.0,37.0,-100.00,WSW,247,0.0,-999.0,91,-99.99,,,-99.99,0.000000,,2013-05-25 07:52:00,
2013-05-25 04:00:00,39.0,37.0,-100.00,SW,225,0.0,-999.0,94,-99.99,,,-99.99,0.000000,,2013-05-25 08:00:00,
2013-05-25 04:32:00,39.0,37.0,-100.00,SW,225,0.0,-999.0,94,-99.99,,,-99.99,0.000000,,2013-05-25 08:32:00,
2013-05-25 04:42:00,39.0,37.0,-100.00,SW,225,0.0,-999.0,94,-99.99,,,-99.99,0.000000,,2013-05-25 08:42:00,
2013-05-25 04:52:00,39.0,37.0,-100.00,SW,225,0.0,-999.0,94,-99.99,,,-99.99,0.000000,,2013-05-25 08:52:00,
2013-05-25 05:00:00,38.0,37.0,-100.00,SE,135,0.0,-999.0,96,-99.99,,,-99.99,0.000000,,2013-05-25 09:00:00,
2013-05-25 05:33:00,38.0,37.0,-100.00,SE,135,0.0,-999.0,96,-99.99,,,-99.99,0.000000,,2013-05-25 09:33:00,
2013-05-25 05:43:00,38.0,37.0,-100.00,SE,135,0.0,-999.0,96,-99.99,,,-99.99,0.000000,,2013-05-25 09:43:00,
2013-05-25 05:53:00,38.0,37.0,-100.00,SE,135,0.0,-999.0,96,-99.99,,,-99.99,0.000000,,2013-05-25 09:53:00,
2013-05-25 06:00:00,39.0,38.0,-100.00,SSE,157,0.0,-999.0,97,-99.99,,,-99.99,0.000000,,2013-05-25 10:00:00,
2013-05-25 06:33:00,39.0,38.0,-100.00,SSE,157,0.0,-999.0,97,-99.99,,,-99.99,0.000000,,2013-05-25 10:33:00,
2013-05-25 06:42:00,39.0,38.0,-100.00,SSE,157,0.0,-999.0,97,-99.99,,,-99.99,0.000000,,2013-05-25 10:42:00,
2013-05-25 06:52:00,39.0,38.0,-100.00,SSE,157,0.0,-999.0,97,-99.99,,,-99.99,0.000000,,2013-05-25 10:52:00,
2013-05-25 07:00:00,40.0,39.0,-100.00,West,270,0.0,-999.0,98,-99.99,,,-99.99,33.639999,,2013-05-25 11:00:00,
2013-05-25 07:32:00,40.0,39.0,-100.00,West,270,0.0,-999.0,98,-99.99,,,-99.99,33.639999,,2013-05-25 11:32:00,
2013-05-25 07:42:00,40.0,39.0,-100.00,West,270,0.0,-999.0,98,-99.99,,,-99.99,33.639999,,2013-05-25 11:42:00,
2013-05-25 07:52:00,40.0,39.0,-100.00,West,270,0.0,-999.0,98,-99.99,,,-99.99,33.639999,,2013-05-25 11:52:00,
2013-05-25 08:00:00,44.0,42.0,-100.00,West,270,1.0,-999.0,93,-99.99,,,-99.99,133.399994,,2013-05-25 12:00:00,
2013-05-25 08:32:00,44.0,42.0,-100.00,West,270,1.0,-999.0,93,-99.99,,,-99.99,133.399994,,2013-05-25 12:32:00,
2013-05-25 08:42:00,44.0,42.0,-100.00,West,270,1.0,-999.0,93,-99.99,,,-99.99,133.399994,,2013-05-25 12:42:00,
2013-05-25 08:52:00,44.0,42.0,-100.00,West,270,1.0,-999.0,93,-99.99,,,-99.99,133.399994,,2013-05-25 12:52:00,
2013-05-25 09:00:00,50.0,43.0,-100.00,SSW,202,1.0,-999.0,77,-99.99,,,-99.99,357.279999,,2013-05-25 13:00:00,
2013-05-25 09:32:00,50.0,43.0,-100.00,SSW,202,1.0,-999.0,77,-99.99,,,-99.99,357.279999,,2013-05-25 13:32:00,
2013-05-25 09:42:00,50.0,43.0,-100.00,SSW,202,1.0,-999.0,77,-99.99,,,-99.99,357.279999,,2013-05-25 13:42:00,
2013-05-25 09:52:00,50.0,43.0,-100.00,SSW,202,1.0,-999.0,77,-99.99,,,-99.99,357.279999,,2013-05-25 13:52:00,
2013-05-25 10:00:00,54.0,45.0,-100.00,SW,225,2.0,-999.0,69,-99.99,,,-99.99,411.799988,,2013-05-25 14:00:00,
2013-05-25 10:32:00,54.0,45.0,-100.00,SW,225,2.0,-999.0,69,-99.99,,,-99.99,411.799988,,2013-05-25 14:32:00,
2013-05-25 10:42:00,54.0,45.0,-100.00,SW,225,2.0,-999.0,69,-99.99,,,-99.99,411.799988,,2013-05-25 14:42:00,
2013-05-25 10:52:00,54.0,45.0,-100.00,SW,225,2.0,-999.0,69,-99.99,,,-99.99,411.799988,,2013-05-25 14:52:00,
2013-05-25 11:00:00,58.0,46.0,-100.00,WSW,247,3.0,-999.0,63,-99.99,,,-99.99,614.799988,,2013-05-25 15:00:00,
2013-05-25 11:33:00,58.0,46.0,-100.00,WSW,247,3.0,-999.0,63,-99.99,,,-99.99,614.799988,,2013-05-25 15:33:00,
2013-05-25 11:43:00,58.0,46.0,-100.00,WSW,247,3.0,-999.0,63,-99.99,,,-99.99,614.799988,,2013-05-25 15:43:00,
2013-05-25 11:53:00,58.0,46.0,-100.00,WSW,247,3.0,-999.0,63,-99.99,,,-99.99,614.799988,,2013-05-25 15:53:00,
2013-05-25 12:00:00,61.0,42.0,-100.00,ESE,112,4.0,-999.0,50,-99.99,,,-99.99,678.599976,,2013-05-25 16:00:00,
2013-05-25 12:33:00,61.0,42.0,-100.00,ESE,112,4.0,-999.0,50,-99.99,,,-99.99,678.599976,,2013-05-25 16:33:00,
2013-05-25 12:42:00,61.0,42.0,-100.00,ESE,112,4.0,-999.0,50,-99.99,,,-99.99,678.599976,,2013-05-25 16:42:00,
2013-05-25 12:52:00,61.0,42.0,-100.00,ESE,112,4.0,-999.0,50,-99.99,,,-99.99,678.599976,,2013-05-25 16:52:00,
2013-05-25 13:00:00,63.0,41.0,-100.00,SE,135,4.0,-999.0,44,-99.99,,,-99.99,668.159973,,2013-05-25 17:00:00,
2013-05-25 13:33:00,63.0,41.0,-100.00,SE,135,4.0,-999.0,44,-99.99,,,-99.99,668.159973,,2013-05-25 17:33:00,
2013-05-25 13:42:00,63.0,41.0,-100.00,SE,135,4.0,-999.0,44,-99.99,,,-99.99,668.159973,,2013-05-25 17:42:00,
2013-05-25 13:52:00,63.0,41.0,-100.00,SE,135,4.0,-999.0,44,-99.99,,,-99.99,668.159973,,2013-05-25 17:52:00,
2013-05-25 14:00:00,64.0,39.0,-100.00,South,180,4.0,-999.0,39,-99.99,,,-99.99,742.400024,,2013-05-25 18:00:00,
2013-05-25 14:32:00,64.0,39.0,-100.00,South,180,4.0,-999.0,39,-99.99,,,-99.99,742.400024,,2013-05-25 18:32:00,
2013-05-25 14:42:00,64.0,39.0,-100.00,South,180,4.0,-999.0,39,-99.99,,,-99.99,742.400024,,2013-05-25 18:42:00,
2013-05-25 14:52:00,64.0,39.0,-100.00,South,180,4.0,-999.0,39,-99.99,,,-99.99,742.400024,,2013-05-25 18:52:00,
2013-05-25 15:00:00,65.0,39.0,-100.00,SSE,157,4.0,-999.0,37,-99.99,,,-99.99,678.599976,,2013-05-25 19:00:00,
2013-05-25 15:32:00,65.0,39.0,-100.00,SSE,157,4.0,-999.0,37,-99.99,,,-99.99,678.599976,,2013-05-25 19:32:00,
2013-05-25 15:42:00,65.0,39.0,-100.00,SSE,157,4.0,-999.0,37,-99.99,,,-99.99,678.599976,,2013-05-25 19:42:00,
2013-05-25 15:52:00,65.0,39.0,-100.00,SSE,157,4.0,-999.0,37,-99.99,,,-99.99,678.599976,,2013-05-25 19:52:00,
2013-05-25 16:00:00,66.0,38.0,-100.00,South,180,4.0,-999.0,35,-99.99,,,-99.99,629.880005,,2013-05-25 20:00:00,
2013-05-25 16:32:00,66.0,38.0,-100.00,South,180,4.0,-999.0,35,-99.99,,,-99.99,629.880005,,2013-05-25 20:32:00,
2013-05-25 16:42:00,66.0,38.0,-100.00,South,180,4.0,-999.0,35,-99.99,,,-99.99,629.880005,,2013-05-25 20:42:00,
2013-05-25 16:52:00,66.0,38.0,-100.00,South,180,4.0,-999.0,35,-99.99,,,-99.99,629.880005,,2013-05-25 20:52:00,
2013-05-25 17:00:00,68.0,40.0,-100.00,SSW,202,4.0,-999.0,35,-99.99,,,-99.99,651.919983,,2013-05-25 21:00:00,
2013-05-25 17:33:00,68.0,40.0,-100.00,SSW,202,4.0,-999.0,35,-99.99,,,-99.99,651.919983,,2013-05-25 21:33:00,
2013-05-25 17:43:00,68.0,40.0,-100.00,SSW,202,4.0,-999.0,35,-99.99,,,-99.99,651.919983,,2013-05-25 21:43:00,
2013-05-25 17:53:00,68.0,40.0,-100.00,SSW,202,4.0,-999.0,35,-99.99,,,-99.99,651.919983,,2013-05-25 21:53:00,
2013-05-25 18:00:00,68.0,40.0,-100.00,SSE,157,4.0,-999.0,35,-99.99,,,-99.99,526.640015,,2013-05-25 22:00:00,
2013-05-25 18:33:00,68.0,40.0,-100.00,SSE,157,4.0,-999.0,35,-99.99,,,-99.99,526.640015,,2013-05-25 22:33:00,
2013-05-25 18:42:00,68.0,40.0,-100.00,SSE,157,4.0,-999.0,35,-99.99,,,-99.99,526.640015,,2013-05-25 22:42:00,
2013-05-25 18:52:00,68.0,40.0,-100.00,SSE,157,4.0,-999.0,35,-99.99,,,-99.99,526.640015,,2013-05-25 22:52:00,
2013-05-25 19:00:00,66.0,40.0,-100.00,East,90,4.0,-999.0,39,-99.99,,,-99.99,229.679993,,2013-05-25 23:00:00,
2013-05-25 19:32:00,66.0,40.0,-100.00,East,90,4.0,-999.0,39,-99.99,,,-99.99,229.679993,,2013-05-25 23:32:00,
2013-05-25 19:42:00,66.0,40.0,-100.00,East,90,4.0,-999.0,39,-99.99,,,-99.99,229.679993,,2013-05-25 23:42:00,
2013-05-25 19:53:00,66.0,40.0,-100.00,East,90,4.0,-999.0,39,-99.99,,,-99.99,229.679993,,2013-05-25 23:53:00,
2013-05-25 21:00:00,61.0,40.0,-100.00,NE,45,4.0,-999.0,47,-99.99,,,-99.99,29.000000,,2013-05-26 01:00:00,
2013-05-25 21:32:00,61.0,40.0,-100.00,NE,45,4.0,-999.0,47,-99.99,,,-99.99,29.000000,,2013-05-26 01:32:00,
2013-05-25 21:42:00,61.0,40.0,-100.00,NE,45,4.0,-999.0,47,-99.99,,,-99.99,29.000000,,2013-05-26 01:42:00,
2013-05-25 21:53:00,61.0,40.0,-100.00,NE,45,4.0,-999.0,47,-99.99,,,-99.99,29.000000,,2013-05-26 01:53:00,
2013-05-25 22:00:00,57.0,41.0,-100.00,NNE,22,3.0,-999.0,53,-99.99,,,-99.99,1.160000,,2013-05-26 02:00:00,
2013-05-25 22:32:00,57.0,41.0,-100.00,NNE,22,3.0,-999.0,53,-99.99,,,-99.99,1.160000,,2013-05-26 02:32:00,
2013-05-25 22:42:00,57.0,41.0,-100.00,NNE,22,3.0,-999.0,53,-99.99,,,-99.99,1.160000,,2013-05-26 02:42:00,
2013-05-25 22:52:00,57.0,41.0,-100.00,NNE,22,3.0,-999.0,53,-99.99,,,-99.99,1.160000,,2013-05-26 02:52:00,
2013-05-25 23:00:00,54.0,40.0,-100.00,NE,45,3.0,-999.0,58,-99.99,,,-99.99,0.000000,,2013-05-26 03:00:00,
2013-05-25 23:33:00,54.0,40.0,-100.00,NE,45,3.0,-999.0,58,-99.99,,,-99.99,0.000000,,2013-05-26 03:33:00,
2013-05-25 23:43:00,54.0,40.0,-100.00,NE,45,3.0,-999.0,58,-99.99,,,-99.99,0.000000,,2013-05-26 03:43:00,
2013-05-25 23:53:00,54.0,40.0,-100.00,NE,45,3.0,-999.0,58,-99.99,,,-99.99,0.000000,,2013-05-26 03:53:00,